Lambert, Arkansas
Current Conditions -  °F | °C
As of 3:53 PM on Wednesday 28 Jan 2015 (Local Time) from KHOT Reporting Station
Clear Clear  
Wind Chill: 68°   Ceiling: Unl
Heat Index: 68°   Visibility: 10mi
Dew Point: 44°   Wind: 9mph
Humidity: 42%   Direction: 150°SSE
Pressure: 30.05"   Gusts: NA
Location:  34.3335°N, 93.1952°W
Report Text: KHOT 282153Z AUTO 15008KT 10SM CLR 20/07 A3005 RMK AO2 SLP173 T02000067
Loading
Personal Weather Stations






























Interactive Weather Map New forecast layout! Learn more

10-Day Weather Forecast

Advertisements
Track Severe Weather on mobile